sensor_id;sensor_type;location;lat;lon;timestamp;temperature;humidity
52895;DHT22;38759;53.396;6.722;2023-03-26T00:00:59;6.90;99.90
52895;DHT22;38759;53.396;6.722;2023-03-26T00:03:25;7.00;99.90
52895;DHT22;38759;53.396;6.722;2023-03-26T00:06:10;6.90;99.90
52895;DHT22;38759;53.396;6.722;2023-03-26T00:08:38;6.90;99.90
52895;DHT22;38759;53.396;6.722;2023-03-26T00:11:05;6.90;99.90
52895;DHT22;38759;53.396;6.722;2023-03-26T00:13:32;6.90;99.90
52895;DHT22;38759;53.396;6.722;2023-03-26T00:15:58;6.90;99.90
52895;DHT22;38759;53.396;6.722;2023-03-26T00:18:27;6.80;99.90
52895;DHT22;38759;53.396;6.722;2023-03-26T00:21:00;6.80;99.90
52895;DHT22;38759;53.396;6.722;2023-03-26T00:23:28;6.80;99.90
52895;DHT22;38759;53.396;6.722;2023-03-26T00:25:55;6.80;99.90
52895;DHT22;38759;53.396;6.722;2023-03-26T00:28:22;6.80;99.90
52895;DHT22;38759;53.396;6.722;2023-03-26T00:30:49;6.70;99.90
52895;DHT22;38759;53.396;6.722;2023-03-26T00:33:15;6.70;99.90
52895;DHT22;38759;53.396;6.722;2023-03-26T00:35:44;7.00;99.90
52895;DHT22;38759;53.396;6.722;2023-03-26T00:38:15;6.80;99.90
52895;DHT22;38759;53.396;6.722;2023-03-26T00:40:42;6.80;99.90
52895;DHT22;38759;53.396;6.722;2023-03-26T00:43:13;6.70;99.90
52895;DHT22;38759;53.396;6.722;2023-03-26T00:45:50;6.90;99.90
52895;DHT22;38759;53.396;6.722;2023-03-26T00:48:16;6.80;99.90
52895;DHT22;38759;53.396;6.722;2023-03-26T00:50:44;6.80;99.90
52895;DHT22;38759;53.396;6.722;2023-03-26T00:53:11;6.70;99.90
52895;DHT22;38759;53.396;6.722;2023-03-26T00:55:47;6.60;99.90
52895;DHT22;38759;53.396;6.722;2023-03-26T00:58:14;6.60;99.90
52895;DHT22;38759;53.396;6.722;2023-03-26T01:00:56;6.50;99.90
52895;DHT22;38759;53.396;6.722;2023-03-26T01:03:23;6.40;99.90
52895;DHT22;38759;53.396;6.722;2023-03-26T01:05:51;6.50;99.90
52895;DHT22;38759;53.396;6.722;2023-03-26T01:08:34;6.40;99.90
52895;DHT22;38759;53.396;6.722;2023-03-26T01:11:21;6.40;99.90
52895;DHT22;38759;53.396;6.722;2023-03-26T01:16:46;6.40;99.90
52895;DHT22;38759;53.396;6.722;2023-03-26T01:19:52;6.30;99.90
52895;DHT22;38759;53.396;6.722;2023-03-26T01:22:15;6.20;99.90
52895;DHT22;38759;53.396;6.722;2023-03-26T01:24:41;6.20;99.90
52895;DHT22;38759;53.396;6.722;2023-03-26T01:40:40;6.20;99.90
52895;DHT22;38759;53.396;6.722;2023-03-26T01:43:23;6.20;99.90
52895;DHT22;38759;53.396;6.722;2023-03-26T01:45:51;6.20;99.90
52895;DHT22;38759;53.396;6.722;2023-03-26T01:48:17;6.10;99.90
52895;DHT22;38759;53.396;6.722;2023-03-26T01:50:43;6.30;99.90
52895;DHT22;38759;53.396;6.722;2023-03-26T01:53:10;6.10;99.90
52895;DHT22;38759;53.396;6.722;2023-03-26T01:58:26;6.00;99.90
52895;DHT22;38759;53.396;6.722;2023-03-26T02:03:28;6.00;99.90
52895;DHT22;38759;53.396;6.722;2023-03-26T02:06:12;6.00;99.90
52895;DHT22;38759;53.396;6.722;2023-03-26T02:09:05;6.00;99.90
52895;DHT22;38759;53.396;6.722;2023-03-26T02:11:34;6.10;99.90
52895;DHT22;38759;53.396;6.722;2023-03-26T02:14:03;6.00;99.90
52895;DHT22;38759;53.396;6.722;2023-03-26T02:16:30;6.00;99.90
52895;DHT22;38759;53.396;6.722;2023-03-26T02:18:56;6.00;99.90
52895;DHT22;38759;53.396;6.722;2023-03-26T02:21:25;6.00;99.90
52895;DHT22;38759;53.396;6.722;2023-03-26T02:23:53;6.00;99.90
52895;DHT22;38759;53.396;6.722;2023-03-26T02:26:27;6.00;99.90
52895;DHT22;38759;53.396;6.722;2023-03-26T02:28:52;6.00;99.90
52895;DHT22;38759;53.396;6.722;2023-03-26T02:31:18;6.00;99.90
52895;DHT22;38759;53.396;6.722;2023-03-26T02:33:44;6.00;99.90
52895;DHT22;38759;53.396;6.722;2023-03-26T02:36:12;6.00;99.90
52895;DHT22;38759;53.396;6.722;2023-03-26T02:38:38;6.10;99.90
52895;DHT22;38759;53.396;6.722;2023-03-26T02:41:04;6.10;99.90
52895;DHT22;38759;53.396;6.722;2023-03-26T02:43:30;6.00;99.90
52895;DHT22;38759;53.396;6.722;2023-03-26T02:45:56;6.10;99.90
52895;DHT22;38759;53.396;6.722;2023-03-26T02:48:22;6.10;99.90
52895;DHT22;38759;53.396;6.722;2023-03-26T02:50:48;6.20;99.90
52895;DHT22;38759;53.396;6.722;2023-03-26T02:53:17;6.40;99.90
52895;DHT22;38759;53.396;6.722;2023-03-26T02:55:43;6.20;99.90
52895;DHT22;38759;53.396;6.722;2023-03-26T02:58:09;6.20;99.90
52895;DHT22;38759;53.396;6.722;2023-03-26T03:00:37;6.20;99.90
52895;DHT22;38759;53.396;6.722;2023-03-26T03:03:03;6.20;99.90
52895;DHT22;38759;53.396;6.722;2023-03-26T03:05:30;6.20;99.90
52895;DHT22;38759;53.396;6.722;2023-03-26T03:07:57;6.10;99.90
52895;DHT22;38759;53.396;6.722;2023-03-26T03:10:27;6.20;99.90
52895;DHT22;38759;53.396;6.722;2023-03-26T03:12:53;6.10;99.90
52895;DHT22;38759;53.396;6.722;2023-03-26T03:15:19;6.20;99.90
52895;DHT22;38759;53.396;6.722;2023-03-26T03:17:45;6.10;99.90
52895;DHT22;38759;53.396;6.722;2023-03-26T03:20:11;6.10;99.90
52895;DHT22;38759;53.396;6.722;2023-03-26T03:22:38;6.10;99.90
52895;DHT22;38759;53.396;6.722;2023-03-26T03:25:04;6.10;99.90
52895;DHT22;38759;53.396;6.722;2023-03-26T03:27:33;6.10;99.90
52895;DHT22;38759;53.396;6.722;2023-03-26T03:29:59;6.00;99.90
52895;DHT22;38759;53.396;6.722;2023-03-26T03:32:25;6.00;99.90
52895;DHT22;38759;53.396;6.722;2023-03-26T03:34:52;6.00;99.90
52895;DHT22;38759;53.396;6.722;2023-03-26T03:37:18;6.00;99.90
52895;DHT22;38759;53.396;6.722;2023-03-26T03:39:44;6.10;99.90
52895;DHT22;38759;53.396;6.722;2023-03-26T03:42:10;6.10;99.90
52895;DHT22;38759;53.396;6.722;2023-03-26T03:44:36;6.00;99.90
52895;DHT22;38759;53.396;6.722;2023-03-26T03:47:02;6.00;99.90
52895;DHT22;38759;53.396;6.722;2023-03-26T03:49:27;5.90;99.90
52895;DHT22;38759;53.396;6.722;2023-03-26T03:51:53;6.00;99.90
52895;DHT22;38759;53.396;6.722;2023-03-26T03:54:19;5.90;99.90
52895;DHT22;38759;53.396;6.722;2023-03-26T03:56:44;5.90;99.90
52895;DHT22;38759;53.396;6.722;2023-03-26T03:59:11;5.90;99.90
52895;DHT22;38759;53.396;6.722;2023-03-26T04:01:37;6.00;99.90
52895;DHT22;38759;53.396;6.722;2023-03-26T04:04:03;5.90;99.90
52895;DHT22;38759;53.396;6.722;2023-03-26T04:06:29;5.90;99.90
52895;DHT22;38759;53.396;6.722;2023-03-26T04:08:55;5.90;99.90
52895;DHT22;38759;53.396;6.722;2023-03-26T04:11:21;5.90;99.90
52895;DHT22;38759;53.396;6.722;2023-03-26T04:13:47;5.90;99.90
52895;DHT22;38759;53.396;6.722;2023-03-26T04:16:13;5.80;99.90
52895;DHT22;38759;53.396;6.722;2023-03-26T04:18:39;6.00;99.90
52895;DHT22;38759;53.396;6.722;2023-03-26T04:21:05;5.80;99.90
52895;DHT22;38759;53.396;6.722;2023-03-26T04:23:32;5.80;99.90
52895;DHT22;38759;53.396;6.722;2023-03-26T04:26:04;5.80;99.90
52895;DHT22;38759;53.396;6.722;2023-03-26T04:28:43;5.80;99.90
52895;DHT22;38759;53.396;6.722;2023-03-26T04:31:13;5.80;99.90
52895;DHT22;38759;53.396;6.722;2023-03-26T04:33:43;5.80;99.90
52895;DHT22;38759;53.396;6.722;2023-03-26T04:36:14;5.70;99.90
52895;DHT22;38759;53.396;6.722;2023-03-26T04:38:45;5.70;99.90
52895;DHT22;38759;53.396;6.722;2023-03-26T04:41:14;5.80;99.90
52895;DHT22;38759;53.396;6.722;2023-03-26T04:43:40;5.80;99.90
52895;DHT22;38759;53.396;6.722;2023-03-26T04:46:16;5.80;99.90
52895;DHT22;38759;53.396;6.722;2023-03-26T04:48:52;5.70;99.90
52895;DHT22;38759;53.396;6.722;2023-03-26T04:51:22;5.70;99.90
52895;DHT22;38759;53.396;6.722;2023-03-26T04:53:57;5.70;99.90
52895;DHT22;38759;53.396;6.722;2023-03-26T04:56:36;5.70;99.90
52895;DHT22;38759;53.396;6.722;2023-03-26T04:59:03;5.80;99.90
52895;DHT22;38759;53.396;6.722;2023-03-26T05:01:29;5.70;99.90
52895;DHT22;38759;53.396;6.722;2023-03-26T05:03:56;5.70;99.90
52895;DHT22;38759;53.396;6.722;2023-03-26T05:06:24;5.70;99.90
52895;DHT22;38759;53.396;6.722;2023-03-26T05:08:53;5.60;99.90
52895;DHT22;38759;53.396;6.722;2023-03-26T05:11:19;5.60;99.90
52895;DHT22;38759;53.396;6.722;2023-03-26T05:13:44;5.60;99.90
52895;DHT22;38759;53.396;6.722;2023-03-26T05:16:12;5.60;99.90
52895;DHT22;38759;53.396;6.722;2023-03-26T05:18:38;5.60;99.90
52895;DHT22;38759;53.396;6.722;2023-03-26T05:21:03;5.60;99.90
52895;DHT22;38759;53.396;6.722;2023-03-26T05:23:29;5.60;99.90
52895;DHT22;38759;53.396;6.722;2023-03-26T05:25:55;5.60;99.90
52895;DHT22;38759;53.396;6.722;2023-03-26T05:28:21;5.80;99.90
52895;DHT22;38759;53.396;6.722;2023-03-26T05:30:50;5.60;99.90
52895;DHT22;38759;53.396;6.722;2023-03-26T05:33:18;5.70;99.90
52895;DHT22;38759;53.396;6.722;2023-03-26T05:35:44;5.60;99.90
52895;DHT22;38759;53.396;6.722;2023-03-26T05:38:10;5.70;99.90
52895;DHT22;38759;53.396;6.722;2023-03-26T05:40:36;5.60;99.90
52895;DHT22;38759;53.396;6.722;2023-03-26T05:43:02;5.60;99.90
52895;DHT22;38759;53.396;6.722;2023-03-26T05:45:28;5.50;99.90
52895;DHT22;38759;53.396;6.722;2023-03-26T05:47:54;5.60;99.90
52895;DHT22;38759;53.396;6.722;2023-03-26T05:50:20;5.60;99.90
52895;DHT22;38759;53.396;6.722;2023-03-26T05:52:46;5.50;99.90
52895;DHT22;38759;53.396;6.722;2023-03-26T05:55:12;5.70;99.90
52895;DHT22;38759;53.396;6.722;2023-03-26T05:57:38;5.60;99.90
52895;DHT22;38759;53.396;6.722;2023-03-26T06:00:05;5.50;99.90
52895;DHT22;38759;53.396;6.722;2023-03-26T06:02:33;5.60;99.90
52895;DHT22;38759;53.396;6.722;2023-03-26T06:04:59;5.70;99.90
52895;DHT22;38759;53.396;6.722;2023-03-26T06:07:25;5.60;99.90
52895;DHT22;38759;53.396;6.722;2023-03-26T06:09:51;5.50;99.90
52895;DHT22;38759;53.396;6.722;2023-03-26T06:12:17;5.40;99.90
52895;DHT22;38759;53.396;6.722;2023-03-26T06:14:43;5.50;99.90
52895;DHT22;38759;53.396;6.722;2023-03-26T06:17:10;5.70;99.90
52895;DHT22;38759;53.396;6.722;2023-03-26T06:19:36;5.40;99.90
52895;DHT22;38759;53.396;6.722;2023-03-26T06:22:02;5.40;99.90
52895;DHT22;38759;53.396;6.722;2023-03-26T06:24:28;5.40;99.90
52895;DHT22;38759;53.396;6.722;2023-03-26T06:26:53;5.30;99.90
52895;DHT22;38759;53.396;6.722;2023-03-26T06:29:19;5.30;99.90
52895;DHT22;38759;53.396;6.722;2023-03-26T06:31:45;5.40;99.90
52895;DHT22;38759;53.396;6.722;2023-03-26T06:34:11;5.40;99.90
52895;DHT22;38759;53.396;6.722;2023-03-26T06:36:37;5.40;99.90
52895;DHT22;38759;53.396;6.722;2023-03-26T06:39:03;5.40;99.90
52895;DHT22;38759;53.396;6.722;2023-03-26T06:41:29;5.50;99.90
52895;DHT22;38759;53.396;6.722;2023-03-26T06:43:56;5.50;99.90
52895;DHT22;38759;53.396;6.722;2023-03-26T06:46:22;5.50;99.90
52895;DHT22;38759;53.396;6.722;2023-03-26T06:48:49;5.60;99.90
52895;DHT22;38759;53.396;6.722;2023-03-26T06:51:16;5.70;99.90
52895;DHT22;38759;53.396;6.722;2023-03-26T06:53:41;5.70;99.90
52895;DHT22;38759;53.396;6.722;2023-03-26T06:56:07;5.80;99.90
52895;DHT22;38759;53.396;6.722;2023-03-26T06:58:33;5.80;99.90
52895;DHT22;38759;53.396;6.722;2023-03-26T07:00:59;5.90;99.90
52895;DHT22;38759;53.396;6.722;2023-03-26T07:03:25;5.90;99.90
52895;DHT22;38759;53.396;6.722;2023-03-26T07:05:51;6.00;99.90
52895;DHT22;38759;53.396;6.722;2023-03-26T07:08:16;6.00;99.90
52895;DHT22;38759;53.396;6.722;2023-03-26T07:10:42;6.00;99.90
52895;DHT22;38759;53.396;6.722;2023-03-26T07:13:08;6.10;99.90
52895;DHT22;38759;53.396;6.722;2023-03-26T07:15:34;6.20;99.90
52895;DHT22;38759;53.396;6.722;2023-03-26T07:18:00;6.20;99.90
52895;DHT22;38759;53.396;6.722;2023-03-26T07:20:26;6.20;99.90
52895;DHT22;38759;53.396;6.722;2023-03-26T07:22:52;6.30;99.90
52895;DHT22;38759;53.396;6.722;2023-03-26T07:25:18;6.30;99.90
52895;DHT22;38759;53.396;6.722;2023-03-26T07:33:22;6.40;99.90
52895;DHT22;38759;53.396;6.722;2023-03-26T07:39:08;6.40;99.90
52895;DHT22;38759;53.396;6.722;2023-03-26T07:47:31;6.40;99.90
52895;DHT22;38759;53.396;6.722;2023-03-26T07:49:58;6.40;99.90
52895;DHT22;38759;53.396;6.722;2023-03-26T07:52:25;6.40;99.90
52895;DHT22;38759;53.396;6.722;2023-03-26T07:54:51;6.40;99.90
52895;DHT22;38759;53.396;6.722;2023-03-26T08:00:29;6.60;99.90
52895;DHT22;38759;53.396;6.722;2023-03-26T08:06:03;6.80;99.90
52895;DHT22;38759;53.396;6.722;2023-03-26T08:11:33;7.00;99.90
52895;DHT22;38759;53.396;6.722;2023-03-26T08:21:52;7.00;99.90
52895;DHT22;38759;53.396;6.722;2023-03-26T08:32:27;7.10;99.90
52895;DHT22;38759;53.396;6.722;2023-03-26T08:34:53;7.10;99.90
52895;DHT22;38759;53.396;6.722;2023-03-26T08:37:19;7.10;99.90
52895;DHT22;38759;53.396;6.722;2023-03-26T08:39:45;7.10;99.90
52895;DHT22;38759;53.396;6.722;2023-03-26T08:56:23;7.30;99.90
52895;DHT22;38759;53.396;6.722;2023-03-26T08:59:25;7.40;99.90
52895;DHT22;38759;53.396;6.722;2023-03-26T09:41:14;8.20;99.90
52895;DHT22;38759;53.396;6.722;2023-03-26T10:06:12;8.10;99.90
52895;DHT22;38759;53.396;6.722;2023-03-26T10:08:43;8.10;99.90
52895;DHT22;38759;53.396;6.722;2023-03-26T10:11:21;8.20;99.90
52895;DHT22;38759;53.396;6.722;2023-03-26T10:19:48;8.10;99.90
52895;DHT22;38759;53.396;6.722;2023-03-26T10:22:29;8.10;99.90
52895;DHT22;38759;53.396;6.722;2023-03-26T10:27:38;8.20;99.90
52895;DHT22;38759;53.396;6.722;2023-03-26T10:53:53;8.70;99.90
52895;DHT22;38759;53.396;6.722;2023-03-26T10:56:45;8.70;99.90
52895;DHT22;38759;53.396;6.722;2023-03-26T10:59:07;8.80;99.90
52895;DHT22;38759;53.396;6.722;2023-03-26T11:04:32;8.80;99.90
52895;DHT22;38759;53.396;6.722;2023-03-26T11:07:18;8.80;99.90
52895;DHT22;38759;53.396;6.722;2023-03-26T11:09:56;8.90;99.90
52895;DHT22;38759;53.396;6.722;2023-03-26T11:15:32;8.70;99.90
52895;DHT22;38759;53.396;6.722;2023-03-26T11:20:48;8.70;99.90
52895;DHT22;38759;53.396;6.722;2023-03-26T11:23:36;8.70;99.90
52895;DHT22;38759;53.396;6.722;2023-03-26T11:34:20;8.70;99.90
52895;DHT22;38759;53.396;6.722;2023-03-26T11:36:52;8.70;99.90
52895;DHT22;38759;53.396;6.722;2023-03-26T11:39:51;8.60;99.90
52895;DHT22;38759;53.396;6.722;2023-03-26T11:42:21;8.50;99.90
52895;DHT22;38759;53.396;6.722;2023-03-26T11:44:53;8.70;99.90
52895;DHT22;38759;53.396;6.722;2023-03-26T11:47:29;8.90;99.90
52895;DHT22;38759;53.396;6.722;2023-03-26T11:49:57;9.20;99.90
52895;DHT22;38759;53.396;6.722;2023-03-26T11:52:25;9.40;99.90
52895;DHT22;38759;53.396;6.722;2023-03-26T11:54:51;9.60;99.90
52895;DHT22;38759;53.396;6.722;2023-03-26T11:57:25;9.80;99.90
52895;DHT22;38759;53.396;6.722;2023-03-26T12:00:28;9.90;99.90
52895;DHT22;38759;53.396;6.722;2023-03-26T12:02:48;10.00;99.90
52895;DHT22;38759;53.396;6.722;2023-03-26T12:05:27;10.00;99.90
52895;DHT22;38759;53.396;6.722;2023-03-26T12:08:18;10.00;99.90
52895;DHT22;38759;53.396;6.722;2023-03-26T12:10:50;9.80;99.90
52895;DHT22;38759;53.396;6.722;2023-03-26T12:15:46;9.90;99.90
52895;DHT22;38759;53.396;6.722;2023-03-26T12:18:38;9.90;99.90
52895;DHT22;38759;53.396;6.722;2023-03-26T12:21:12;9.90;99.90
52895;DHT22;38759;53.396;6.722;2023-03-26T12:26:55;9.70;99.90
52895;DHT22;38759;53.396;6.722;2023-03-26T12:29:20;9.60;99.90
52895;DHT22;38759;53.396;6.722;2023-03-26T12:32:05;9.40;99.90
52895;DHT22;38759;53.396;6.722;2023-03-26T12:34:35;9.30;99.90
52895;DHT22;38759;53.396;6.722;2023-03-26T12:37:03;9.10;99.90
52895;DHT22;38759;53.396;6.722;2023-03-26T12:39:40;9.00;99.90
52895;DHT22;38759;53.396;6.722;2023-03-26T12:42:26;8.90;99.90
52895;DHT22;38759;53.396;6.722;2023-03-26T12:44:55;8.80;99.90
52895;DHT22;38759;53.396;6.722;2023-03-26T12:47:29;8.80;99.90
52895;DHT22;38759;53.396;6.722;2023-03-26T12:49:56;8.70;99.90
52895;DHT22;38759;53.396;6.722;2023-03-26T12:52:42;8.60;99.90
52895;DHT22;38759;53.396;6.722;2023-03-26T13:04:11;8.60;99.90
52895;DHT22;38759;53.396;6.722;2023-03-26T13:06:48;8.80;99.90
52895;DHT22;38759;53.396;6.722;2023-03-26T13:09:31;9.10;99.90
52895;DHT22;38759;53.396;6.722;2023-03-26T13:12:15;9.50;99.90
52895;DHT22;38759;53.396;6.722;2023-03-26T13:15:14;9.80;99.90
52895;DHT22;38759;53.396;6.722;2023-03-26T13:17:55;10.10;99.90
52895;DHT22;38759;53.396;6.722;2023-03-26T13:20:24;10.20;99.90
52895;DHT22;38759;53.396;6.722;2023-03-26T13:23:05;10.50;99.90
52895;DHT22;38759;53.396;6.722;2023-03-26T13:28:46;10.80;99.90
52895;DHT22;38759;53.396;6.722;2023-03-26T13:34:35;10.50;99.90
52895;DHT22;38759;53.396;6.722;2023-03-26T13:37:13;10.30;99.90
52895;DHT22;38759;53.396;6.722;2023-03-26T13:47:57;9.80;99.90
52895;DHT22;38759;53.396;6.722;2023-03-26T13:50:34;9.70;99.90
52895;DHT22;38759;53.396;6.722;2023-03-26T13:53:17;9.70;99.90
52895;DHT22;38759;53.396;6.722;2023-03-26T13:55:49;9.80;99.90
52895;DHT22;38759;53.396;6.722;2023-03-26T13:58:34;9.90;99.90
52895;DHT22;38759;53.396;6.722;2023-03-26T14:06:37;9.80;99.90
52895;DHT22;38759;53.396;6.722;2023-03-26T14:09:16;10.00;99.90
52895;DHT22;38759;53.396;6.722;2023-03-26T14:15:03;9.90;99.90
52895;DHT22;38759;53.396;6.722;2023-03-26T14:17:50;9.80;99.90
52895;DHT22;38759;53.396;6.722;2023-03-26T14:29:30;10.50;99.90
52895;DHT22;38759;53.396;6.722;2023-03-26T14:54:48;10.20;99.90
52895;DHT22;38759;53.396;6.722;2023-03-26T15:13:47;9.30;99.90
52895;DHT22;38759;53.396;6.722;2023-03-26T15:16:55;9.00;99.90
52895;DHT22;38759;53.396;6.722;2023-03-26T15:31:10;8.80;99.90
52895;DHT22;38759;53.396;6.722;2023-03-26T15:34:04;9.00;99.90
52895;DHT22;38759;53.396;6.722;2023-03-26T15:42:52;9.00;99.90
52895;DHT22;38759;53.396;6.722;2023-03-26T15:54:32;8.80;99.90
52895;DHT22;38759;53.396;6.722;2023-03-26T15:59:55;8.40;99.90
52895;DHT22;38759;53.396;6.722;2023-03-26T16:05:34;8.20;99.90
52895;DHT22;38759;53.396;6.722;2023-03-26T16:11:01;7.90;99.90
52895;DHT22;38759;53.396;6.722;2023-03-26T16:13:42;7.80;99.90
52895;DHT22;38759;53.396;6.722;2023-03-26T16:18:53;7.70;99.90
52895;DHT22;38759;53.396;6.722;2023-03-26T16:21:35;7.70;99.90
52895;DHT22;38759;53.396;6.722;2023-03-26T16:32:02;7.90;99.90
52895;DHT22;38759;53.396;6.722;2023-03-26T16:37:14;7.70;99.90
52895;DHT22;38759;53.396;6.722;2023-03-26T16:39:51;7.60;99.90
52895;DHT22;38759;53.396;6.722;2023-03-26T16:42:40;7.40;99.90
52895;DHT22;38759;53.396;6.722;2023-03-26T16:45:20;7.30;99.90
52895;DHT22;38759;53.396;6.722;2023-03-26T16:48:09;7.20;99.90
52895;DHT22;38759;53.396;6.722;2023-03-26T16:56:13;7.10;99.90
52895;DHT22;38759;53.396;6.722;2023-03-26T17:01:34;7.10;99.90
52895;DHT22;38759;53.396;6.722;2023-03-26T17:04:11;7.00;99.90
52895;DHT22;38759;53.396;6.722;2023-03-26T17:07:14;6.90;99.90
52895;DHT22;38759;53.396;6.722;2023-03-26T17:12:43;6.80;99.90
52895;DHT22;38759;53.396;6.722;2023-03-26T17:22:46;6.60;99.90
52895;DHT22;38759;53.396;6.722;2023-03-26T17:25:29;6.50;99.90
52895;DHT22;38759;53.396;6.722;2023-03-26T17:31:00;6.40;99.90
52895;DHT22;38759;53.396;6.722;2023-03-26T17:33:31;6.40;99.90
52895;DHT22;38759;53.396;6.722;2023-03-26T17:41:13;6.10;99.90
52895;DHT22;38759;53.396;6.722;2023-03-26T17:43:48;6.00;99.90
52895;DHT22;38759;53.396;6.722;2023-03-26T17:46:36;6.00;99.90
52895;DHT22;38759;53.396;6.722;2023-03-26T17:54:39;5.80;99.90
52895;DHT22;38759;53.396;6.722;2023-03-26T17:57:44;5.80;99.90
52895;DHT22;38759;53.396;6.722;2023-03-26T18:00:35;5.80;99.90
52895;DHT22;38759;53.396;6.722;2023-03-26T18:05:38;5.60;99.90
52895;DHT22;38759;53.396;6.722;2023-03-26T18:16:51;5.40;99.90
52895;DHT22;38759;53.396;6.722;2023-03-26T18:19:19;5.40;99.90
52895;DHT22;38759;53.396;6.722;2023-03-26T18:21:58;5.30;99.90
52895;DHT22;38759;53.396;6.722;2023-03-26T18:24:31;5.30;99.90
52895;DHT22;38759;53.396;6.722;2023-03-26T18:29:35;5.20;99.90
52895;DHT22;38759;53.396;6.722;2023-03-26T18:34:36;5.10;99.90
52895;DHT22;38759;53.396;6.722;2023-03-26T18:39:54;5.10;99.90
52895;DHT22;38759;53.396;6.722;2023-03-26T18:42:21;5.00;99.90
52895;DHT22;38759;53.396;6.722;2023-03-26T18:44:48;5.00;99.90
52895;DHT22;38759;53.396;6.722;2023-03-26T18:47:18;5.00;99.90
52895;DHT22;38759;53.396;6.722;2023-03-26T18:49:46;5.00;99.90
52895;DHT22;38759;53.396;6.722;2023-03-26T18:52:15;5.00;99.90
52895;DHT22;38759;53.396;6.722;2023-03-26T18:54:41;5.00;99.90
52895;DHT22;38759;53.396;6.722;2023-03-26T18:57:10;5.10;99.90
52895;DHT22;38759;53.396;6.722;2023-03-26T18:59:36;5.10;99.90
52895;DHT22;38759;53.396;6.722;2023-03-26T19:02:10;5.10;99.90
52895;DHT22;38759;53.396;6.722;2023-03-26T19:04:37;5.10;99.90
52895;DHT22;38759;53.396;6.722;2023-03-26T19:07:07;5.10;99.90
52895;DHT22;38759;53.396;6.722;2023-03-26T19:09:34;5.00;99.90
52895;DHT22;38759;53.396;6.722;2023-03-26T19:12:06;5.00;99.90
52895;DHT22;38759;53.396;6.722;2023-03-26T19:14:32;5.00;99.90
52895;DHT22;38759;53.396;6.722;2023-03-26T19:17:02;4.90;99.90
52895;DHT22;38759;53.396;6.722;2023-03-26T19:19:31;4.90;99.90
52895;DHT22;38759;53.396;6.722;2023-03-26T19:21:58;4.90;99.90
52895;DHT22;38759;53.396;6.722;2023-03-26T19:24:24;4.90;99.90
52895;DHT22;38759;53.396;6.722;2023-03-26T19:26:51;4.80;99.90
52895;DHT22;38759;53.396;6.722;2023-03-26T19:29:23;4.80;99.90
52895;DHT22;38759;53.396;6.722;2023-03-26T19:31:50;4.80;99.90
52895;DHT22;38759;53.396;6.722;2023-03-26T19:34:38;4.90;99.90
52895;DHT22;38759;53.396;6.722;2023-03-26T19:37:17;4.70;99.90
52895;DHT22;38759;53.396;6.722;2023-03-26T19:39:45;4.70;99.90
52895;DHT22;38759;53.396;6.722;2023-03-26T19:42:23;4.80;99.90
52895;DHT22;38759;53.396;6.722;2023-03-26T19:44:51;4.80;99.90
52895;DHT22;38759;53.396;6.722;2023-03-26T19:47:18;4.80;99.90
52895;DHT22;38759;53.396;6.722;2023-03-26T19:49:54;4.80;99.90
52895;DHT22;38759;53.396;6.722;2023-03-26T19:52:24;4.80;99.90
52895;DHT22;38759;53.396;6.722;2023-03-26T19:54:51;4.80;99.90
52895;DHT22;38759;53.396;6.722;2023-03-26T19:57:20;4.70;99.90
52895;DHT22;38759;53.396;6.722;2023-03-26T19:59:50;4.70;99.90
52895;DHT22;38759;53.396;6.722;2023-03-26T20:02:16;4.70;99.90
52895;DHT22;38759;53.396;6.722;2023-03-26T20:04:42;4.80;99.90
52895;DHT22;38759;53.396;6.722;2023-03-26T20:07:21;4.60;99.90
52895;DHT22;38759;53.396;6.722;2023-03-26T20:09:52;4.70;99.90
52895;DHT22;38759;53.396;6.722;2023-03-26T20:12:18;4.60;99.90
52895;DHT22;38759;53.396;6.722;2023-03-26T20:14:44;4.60;99.90
52895;DHT22;38759;53.396;6.722;2023-03-26T20:17:12;4.70;99.90
52895;DHT22;38759;53.396;6.722;2023-03-26T20:19:39;4.60;99.90
52895;DHT22;38759;53.396;6.722;2023-03-26T20:22:13;4.50;99.90
52895;DHT22;38759;53.396;6.722;2023-03-26T20:24:39;4.50;99.90
52895;DHT22;38759;53.396;6.722;2023-03-26T20:27:06;4.60;99.90
52895;DHT22;38759;53.396;6.722;2023-03-26T20:29:31;4.50;99.90
52895;DHT22;38759;53.396;6.722;2023-03-26T20:31:57;4.60;99.90
52895;DHT22;38759;53.396;6.722;2023-03-26T20:34:23;4.50;99.90
52895;DHT22;38759;53.396;6.722;2023-03-26T20:36:49;4.50;99.90
52895;DHT22;38759;53.396;6.722;2023-03-26T20:39:18;4.60;99.90
52895;DHT22;38759;53.396;6.722;2023-03-26T20:41:46;4.50;99.90
52895;DHT22;38759;53.396;6.722;2023-03-26T20:44:14;4.60;99.90
52895;DHT22;38759;53.396;6.722;2023-03-26T20:46:42;4.70;99.90
52895;DHT22;38759;53.396;6.722;2023-03-26T20:49:09;4.60;99.90
52895;DHT22;38759;53.396;6.722;2023-03-26T20:51:38;4.60;99.90
52895;DHT22;38759;53.396;6.722;2023-03-26T20:54:27;4.60;99.90
52895;DHT22;38759;53.396;6.722;2023-03-26T20:56:54;4.60;99.90
52895;DHT22;38759;53.396;6.722;2023-03-26T20:59:22;4.50;99.90
52895;DHT22;38759;53.396;6.722;2023-03-26T21:01:51;4.50;99.90
52895;DHT22;38759;53.396;6.722;2023-03-26T21:04:19;4.50;99.90
52895;DHT22;38759;53.396;6.722;2023-03-26T21:06:45;4.40;99.90
52895;DHT22;38759;53.396;6.722;2023-03-26T21:09:16;4.40;99.90
52895;DHT22;38759;53.396;6.722;2023-03-26T21:12:03;4.40;99.90
52895;DHT22;38759;53.396;6.722;2023-03-26T21:14:35;4.50;99.90
52895;DHT22;38759;53.396;6.722;2023-03-26T21:17:15;4.50;99.90
52895;DHT22;38759;53.396;6.722;2023-03-26T21:19:41;4.50;99.90
52895;DHT22;38759;53.396;6.722;2023-03-26T21:27:50;4.50;99.90
52895;DHT22;38759;53.396;6.722;2023-03-26T21:30:18;4.50;99.90
52895;DHT22;38759;53.396;6.722;2023-03-26T21:32:45;4.40;99.90
52895;DHT22;38759;53.396;6.722;2023-03-26T21:35:11;4.50;99.90
52895;DHT22;38759;53.396;6.722;2023-03-26T21:37:39;4.40;99.90
52895;DHT22;38759;53.396;6.722;2023-03-26T21:40:09;4.40;99.90
52895;DHT22;38759;53.396;6.722;2023-03-26T21:42:44;4.40;99.90
52895;DHT22;38759;53.396;6.722;2023-03-26T21:45:10;4.40;99.90
52895;DHT22;38759;53.396;6.722;2023-03-26T21:47:36;4.40;99.90
52895;DHT22;38759;53.396;6.722;2023-03-26T21:50:04;4.40;99.90
52895;DHT22;38759;53.396;6.722;2023-03-26T21:52:30;4.40;99.90
52895;DHT22;38759;53.396;6.722;2023-03-26T21:54:57;4.40;99.90
52895;DHT22;38759;53.396;6.722;2023-03-26T21:57:54;4.30;99.90
52895;DHT22;38759;53.396;6.722;2023-03-26T22:00:27;4.40;99.90
52895;DHT22;38759;53.396;6.722;2023-03-26T22:03:04;4.40;99.90
52895;DHT22;38759;53.396;6.722;2023-03-26T22:05:52;4.30;99.90
52895;DHT22;38759;53.396;6.722;2023-03-26T22:08:32;4.30;99.90
52895;DHT22;38759;53.396;6.722;2023-03-26T22:11:00;4.30;99.90
52895;DHT22;38759;53.396;6.722;2023-03-26T22:13:25;4.30;99.90
52895;DHT22;38759;53.396;6.722;2023-03-26T22:15:52;4.30;99.90
52895;DHT22;38759;53.396;6.722;2023-03-26T22:18:17;4.20;99.90
52895;DHT22;38759;53.396;6.722;2023-03-26T22:20:47;4.20;99.90
52895;DHT22;38759;53.396;6.722;2023-03-26T22:23:13;4.20;99.90
52895;DHT22;38759;53.396;6.722;2023-03-26T22:25:39;4.20;99.90
52895;DHT22;38759;53.396;6.722;2023-03-26T22:28:04;4.20;99.90